createdAt,value
2023-02-26T00:00:41.310Z,5.00
2023-02-26T00:01:43.985Z,7.00
2023-02-26T00:02:48.897Z,7.00
2023-02-26T00:03:51.647Z,7.50
2023-02-26T00:04:53.286Z,7.00
2023-02-26T00:06:00.001Z,5.50
2023-02-26T00:07:01.793Z,5.50
2023-02-26T00:08:05.934Z,7.00
2023-02-26T00:09:07.656Z,7.00
2023-02-26T00:10:11.953Z,7.00
2023-02-26T00:11:13.723Z,7.00
2023-02-26T00:12:18.305Z,7.00
2023-02-26T00:13:20.557Z,9.00
2023-02-26T00:14:23.427Z,7.00
2023-02-26T00:15:25.393Z,9.00
2023-02-26T00:16:29.311Z,7.00
2023-02-26T00:17:34.410Z,7.00
2023-02-26T00:18:37.580Z,7.00
2023-02-26T00:19:39.608Z,5.00
2023-02-26T00:20:43.889Z,7.00
2023-02-26T00:21:45.938Z,7.00
2023-02-26T00:22:49.053Z,5.00
2023-02-26T00:23:50.992Z,6.50
2023-02-26T00:24:53.643Z,7.00
2023-02-26T00:25:55.347Z,6.00
2023-02-26T00:26:57.936Z,7.50
2023-02-26T00:28:02.594Z,7.00
2023-02-26T00:29:04.645Z,5.00
2023-02-26T00:30:08.385Z,7.00
2023-02-26T00:31:10.831Z,5.00
2023-02-26T00:32:14.002Z,5.00
2023-02-26T00:33:16.154Z,5.00
2023-02-26T00:34:19.320Z,7.00
2023-02-26T00:35:21.680Z,8.00
2023-02-26T00:36:25.953Z,7.00
2023-02-26T00:37:32.072Z,7.00
2023-02-26T00:38:34.656Z,7.00
2023-02-26T00:39:38.328Z,7.00
2023-02-26T00:40:42.530Z,5.00
2023-02-26T00:41:44.644Z,5.50
2023-02-26T00:42:47.878Z,6.50
2023-02-26T00:43:51.471Z,7.00
2023-02-26T00:44:54.526Z,5.50
2023-02-26T00:45:58.128Z,7.00
2023-02-26T00:47:04.220Z,6.00
2023-02-26T00:48:17.150Z,5.00
2023-02-26T00:49:24.862Z,6.50
2023-02-26T00:50:27.367Z,5.00
2023-02-26T00:51:32.171Z,7.00
2023-02-26T00:52:38.025Z,5.00
2023-02-26T00:53:43.600Z,4.00
2023-02-26T00:54:45.366Z,5.00
2023-02-26T00:55:47.928Z,5.00
2023-02-26T00:56:49.755Z,5.00
2023-02-26T00:57:52.341Z,7.00
2023-02-26T00:58:55.317Z,5.50
2023-02-26T00:59:57.925Z,5.50
2023-02-26T01:01:00.036Z,6.00
2023-02-26T01:02:02.659Z,7.00
2023-02-26T01:03:04.864Z,5.00
2023-02-26T01:04:07.983Z,5.00
2023-02-26T01:05:10.629Z,5.00
2023-02-26T01:06:13.272Z,4.00
2023-02-26T01:07:15.268Z,3.00
2023-02-26T01:08:20.661Z,4.50
2023-02-26T01:09:25.464Z,5.00
2023-02-26T01:10:28.725Z,5.00
2023-02-26T01:11:30.889Z,5.00
2023-02-26T01:12:34.117Z,5.00
2023-02-26T01:13:36.046Z,5.00
2023-02-26T01:14:40.475Z,4.00
2023-02-26T01:15:44.877Z,4.00
2023-02-26T01:16:51.791Z,5.00
2023-02-26T01:17:56.455Z,5.00
2023-02-26T01:19:01.803Z,3.00
2023-02-26T01:20:06.064Z,5.00
2023-02-26T01:21:09.214Z,5.50
2023-02-26T01:22:14.254Z,5.00
2023-02-26T01:23:16.807Z,3.00
2023-02-26T01:24:19.778Z,5.00
2023-02-26T01:25:24.386Z,5.00
2023-02-26T01:26:28.671Z,5.00
2023-02-26T01:27:30.698Z,3.00
2023-02-26T01:28:33.937Z,2.00
2023-02-26T01:29:35.828Z,5.00
2023-02-26T01:30:40.450Z,5.00
2023-02-26T01:31:45.607Z,5.00
2023-02-26T01:32:50.689Z,4.50
2023-02-26T01:33:54.238Z,5.00
2023-02-26T01:34:59.226Z,5.00
2023-02-26T01:36:03.035Z,3.00
2023-02-26T01:37:10.288Z,5.00
2023-02-26T01:38:17.599Z,4.50
2023-02-26T01:39:23.410Z,5.00
2023-02-26T01:40:52.337Z,5.00
2023-02-26T01:41:55.721Z,3.75
2023-02-26T01:42:58.896Z,5.00
2023-02-26T01:44:05.931Z,5.00
2023-02-26T01:45:11.694Z,3.00
2023-02-26T01:46:17.746Z,3.00
2023-02-26T01:47:21.359Z,5.00
2023-02-26T01:48:32.805Z,3.75
2023-02-26T01:49:35.831Z,6.25
2023-02-26T01:50:37.536Z,3.00
2023-02-26T01:51:45.901Z,3.25
2023-02-26T01:53:15.054Z,5.00
2023-02-26T01:54:20.879Z,5.75
2023-02-26T01:55:24.611Z,4.00
2023-02-26T01:56:27.578Z,3.00
2023-02-26T01:57:29.393Z,3.00
2023-02-26T01:58:33.313Z,5.00
2023-02-26T01:59:36.302Z,5.00
2023-02-26T02:00:38.992Z,5.00
2023-02-26T02:01:41.961Z,5.00
2023-02-26T02:02:44.662Z,3.00
2023-02-26T02:03:46.426Z,3.00
2023-02-26T02:04:49.308Z,4.75
2023-02-26T02:05:52.223Z,4.50
2023-02-26T02:06:55.021Z,3.75
2023-02-26T02:07:56.853Z,3.75
2023-02-26T02:08:59.454Z,5.00
2023-02-26T02:10:01.082Z,3.00
2023-02-26T02:11:03.877Z,6.50
2023-02-26T02:12:14.487Z,3.25
2023-02-26T02:13:28.166Z,3.25
2023-02-26T02:14:32.896Z,5.50
2023-02-26T02:15:38.638Z,7.25
2023-02-26T02:16:46.620Z,3.00
2023-02-26T02:17:50.578Z,5.75
2023-02-26T02:18:55.204Z,5.00
2023-02-26T02:20:15.970Z,5.00
2023-02-26T02:21:30.969Z,5.00
2023-02-26T02:22:39.052Z,3.75
2023-02-26T02:23:44.276Z,5.75
2023-02-26T02:24:52.274Z,4.25
2023-02-26T02:26:30.253Z,3.00
2023-02-26T02:27:36.797Z,4.00
2023-02-26T02:28:44.392Z,6.25
2023-02-26T02:29:54.229Z,5.50
2023-02-26T02:31:00.487Z,4.25
2023-02-26T02:32:04.931Z,7.25
2023-02-26T02:33:10.668Z,4.00
2023-02-26T02:34:14.158Z,4.25
2023-02-26T02:35:18.261Z,4.25
2023-02-26T02:36:25.053Z,3.25
2023-02-26T02:37:28.143Z,5.00
2023-02-26T02:38:33.909Z,3.00
2023-02-26T02:39:38.912Z,4.50
2023-02-26T02:40:43.783Z,5.00
2023-02-26T02:41:47.334Z,4.00
2023-02-26T02:42:53.426Z,2.25
2023-02-26T02:43:55.040Z,4.75
2023-02-26T02:44:59.192Z,3.00
2023-02-26T02:46:03.714Z,6.00
2023-02-26T02:47:06.468Z,3.25
2023-02-26T02:48:11.761Z,5.00
2023-02-26T02:49:15.854Z,3.00
2023-02-26T02:50:20.241Z,5.00
2023-02-26T02:51:24.238Z,5.00
2023-02-26T02:52:28.551Z,7.00
2023-02-26T02:53:34.172Z,6.50
2023-02-26T02:54:38.173Z,3.50
2023-02-26T02:55:44.075Z,4.25
2023-02-26T02:56:47.012Z,3.00
2023-02-26T02:57:51.802Z,3.00
2023-02-26T02:58:55.247Z,3.00
2023-02-26T03:00:00.307Z,3.00
2023-02-26T03:01:10.862Z,5.00
2023-02-26T03:02:15.662Z,5.00
2023-02-26T03:03:20.270Z,4.25
2023-02-26T03:04:21.880Z,4.50
2023-02-26T03:05:24.506Z,5.00
2023-02-26T03:06:26.143Z,6.00
2023-02-26T03:07:29.258Z,5.75
2023-02-26T03:08:33.610Z,4.50
2023-02-26T03:09:36.194Z,3.00
2023-02-26T03:10:37.825Z,5.00
2023-02-26T03:11:40.893Z,7.00
2023-02-26T03:12:42.529Z,3.00
2023-02-26T03:13:45.110Z,3.00
2023-02-26T03:14:46.716Z,3.75
2023-02-26T03:15:54.819Z,5.00
2023-02-26T03:17:02.781Z,3.00
2023-02-26T03:18:12.843Z,3.00
2023-02-26T03:19:18.254Z,3.00
2023-02-26T03:20:25.020Z,5.00
2023-02-26T03:21:30.687Z,3.00
2023-02-26T03:22:36.124Z,3.75
2023-02-26T03:23:40.667Z,6.50
2023-02-26T03:24:49.026Z,3.00
2023-02-26T03:25:53.949Z,4.75
2023-02-26T03:26:59.193Z,3.00
2023-02-26T03:28:06.178Z,4.75
2023-02-26T03:29:11.066Z,5.00
2023-02-26T03:30:15.968Z,5.00
2023-02-26T03:31:20.307Z,4.50
2023-02-26T03:32:24.940Z,5.00
2023-02-26T03:33:30.052Z,3.00
2023-02-26T03:34:35.056Z,3.00
2023-02-26T03:35:39.988Z,3.00
2023-02-26T03:36:43.447Z,5.75
2023-02-26T03:37:46.745Z,5.00
2023-02-26T03:38:49.776Z,3.75
2023-02-26T03:39:53.547Z,5.00
2023-02-26T03:40:57.927Z,5.00
2023-02-26T03:42:03.197Z,4.75
2023-02-26T03:43:06.712Z,3.50
2023-02-26T03:44:10.699Z,5.00
2023-02-26T03:45:13.671Z,4.50
2023-02-26T03:46:17.663Z,5.00
2023-02-26T03:47:19.319Z,6.75
2023-02-26T03:48:25.631Z,4.00
2023-02-26T03:49:29.685Z,7.00
2023-02-26T03:50:33.642Z,5.00
2023-02-26T03:51:35.414Z,5.00
2023-02-26T03:52:44.208Z,6.75
2023-02-26T03:53:48.383Z,6.75
2023-02-26T03:54:53.499Z,3.00
2023-02-26T03:55:57.933Z,6.75
2023-02-26T03:57:00.514Z,7.00
2023-02-26T03:58:02.202Z,5.00
2023-02-26T03:59:04.806Z,7.25
2023-02-26T04:00:09.262Z,3.25
2023-02-26T04:01:14.972Z,4.75
2023-02-26T04:02:18.642Z,5.75
2023-02-26T04:03:25.374Z,5.25
2023-02-26T04:04:30.000Z,6.50
2023-02-26T04:05:33.370Z,6.25
2023-02-26T04:06:35.959Z,5.00
2023-02-26T04:07:37.584Z,6.75
2023-02-26T04:08:40.173Z,6.25
2023-02-26T04:09:42.042Z,5.00
2023-02-26T04:10:46.618Z,6.25
2023-02-26T04:11:48.595Z,6.00
2023-02-26T04:12:51.257Z,5.00
2023-02-26T04:13:52.895Z,6.50
2023-02-26T04:14:55.538Z,7.00
2023-02-26T04:15:59.091Z,8.50
2023-02-26T04:17:01.708Z,7.75
2023-02-26T04:18:03.641Z,8.75
2023-02-26T04:19:07.583Z,5.50
2023-02-26T04:20:10.830Z,8.75
2023-02-26T04:21:13.604Z,7.00
2023-02-26T04:22:15.210Z,7.25
2023-02-26T04:23:19.324Z,6.50
2023-02-26T04:24:21.922Z,5.00
2023-02-26T04:25:23.556Z,5.25
2023-02-26T04:26:26.504Z,5.00
2023-02-26T04:27:28.347Z,6.75
2023-02-26T04:28:31.065Z,7.00
2023-02-26T04:29:32.684Z,9.00
2023-02-26T04:30:35.335Z,7.00
2023-02-26T04:31:37.018Z,7.00
2023-02-26T04:32:39.795Z,9.00
2023-02-26T04:33:41.414Z,6.00
2023-02-26T04:34:45.365Z,8.00
2023-02-26T04:35:46.967Z,7.00
2023-02-26T04:36:49.563Z,7.00
2023-02-26T04:37:51.207Z,9.00
2023-02-26T04:38:53.837Z,9.00
2023-02-26T04:39:55.461Z,7.00
2023-02-26T04:40:58.055Z,9.00
2023-02-26T04:41:59.712Z,9.00
2023-02-26T04:43:03.082Z,7.00
2023-02-26T04:44:04.930Z,8.25
2023-02-26T04:45:08.244Z,6.50
2023-02-26T04:46:10.871Z,7.50
2023-02-26T04:47:12.511Z,8.00
2023-02-26T04:48:15.176Z,9.00
2023-02-26T04:49:17.054Z,9.00
2023-02-26T04:50:21.263Z,8.00
2023-02-26T04:51:23.017Z,8.50
2023-02-26T04:52:26.012Z,7.00
2023-02-26T04:53:27.696Z,7.00
2023-02-26T04:54:30.274Z,7.00
2023-02-26T04:55:31.968Z,7.00
2023-02-26T04:56:34.540Z,7.00
2023-02-26T04:57:36.145Z,8.50
2023-02-26T04:58:38.741Z,6.50
2023-02-26T04:59:40.347Z,7.50
2023-02-26T05:00:42.915Z,7.00
2023-02-26T05:01:44.551Z,9.75
2023-02-26T05:02:47.165Z,8.50
2023-02-26T05:03:48.810Z,5.00
2023-02-26T05:04:51.454Z,5.00
2023-02-26T05:05:54.474Z,7.50
2023-02-26T05:06:57.116Z,7.00
2023-02-26T05:07:59.348Z,7.00
2023-02-26T05:09:01.932Z,7.00
2023-02-26T05:10:04.095Z,7.00
2023-02-26T05:11:07.249Z,7.75
2023-02-26T05:12:08.853Z,7.00
2023-02-26T05:13:11.876Z,7.00
2023-02-26T05:14:13.465Z,7.25
2023-02-26T05:15:16.117Z,6.25
2023-02-26T05:16:17.793Z,7.50
2023-02-26T05:17:20.394Z,6.00
2023-02-26T05:18:21.981Z,5.75
2023-02-26T05:19:24.560Z,4.50
2023-02-26T05:20:26.181Z,6.50
2023-02-26T05:21:30.126Z,7.00
2023-02-26T05:22:31.743Z,5.75
2023-02-26T05:23:34.337Z,7.75
2023-02-26T05:24:35.943Z,8.00
2023-02-26T05:25:38.523Z,5.00
2023-02-26T05:26:40.150Z,7.00
2023-02-26T05:27:43.388Z,5.25
2023-02-26T05:28:45.648Z,7.25
2023-02-26T05:29:48.247Z,6.25
2023-02-26T05:30:49.920Z,7.00
2023-02-26T05:31:52.600Z,5.25
2023-02-26T05:32:54.724Z,5.25
2023-02-26T05:33:57.298Z,7.75
2023-02-26T05:34:58.892Z,7.25
2023-02-26T05:36:01.482Z,7.00
2023-02-26T05:37:04.485Z,6.75
2023-02-26T05:38:07.225Z,7.00
2023-02-26T05:39:09.459Z,5.00
2023-02-26T05:40:13.117Z,5.00
2023-02-26T05:41:14.750Z,7.00
2023-02-26T05:42:17.341Z,7.75
2023-02-26T05:43:18.967Z,7.00
2023-02-26T05:44:21.552Z,6.75
2023-02-26T05:45:23.160Z,7.75
2023-02-26T05:46:26.148Z,7.25
2023-02-26T05:47:28.000Z,5.00
2023-02-26T05:48:30.877Z,7.25
2023-02-26T05:49:32.492Z,3.75
2023-02-26T05:50:35.076Z,5.00
2023-02-26T05:51:36.730Z,7.00
2023-02-26T05:52:40.667Z,6.00
2023-02-26T05:53:42.265Z,5.75
2023-02-26T05:54:44.860Z,7.25
2023-02-26T05:55:46.473Z,8.50
2023-02-26T05:56:49.043Z,5.25
2023-02-26T05:57:50.700Z,7.00
2023-02-26T05:58:53.266Z,5.25
2023-02-26T05:59:54.888Z,7.75
2023-02-26T06:00:59.428Z,8.25
2023-02-26T06:02:01.042Z,7.25
2023-02-26T06:03:03.772Z,7.75
2023-02-26T06:04:05.454Z,7.75
2023-02-26T06:05:09.269Z,7.25
2023-02-26T06:06:10.933Z,5.75
2023-02-26T06:07:13.516Z,6.00
2023-02-26T06:08:16.550Z,8.25
2023-02-26T06:09:19.150Z,6.00
2023-02-26T06:10:20.994Z,7.75
2023-02-26T06:11:23.564Z,6.50
2023-02-26T06:12:25.290Z,7.25
2023-02-26T06:13:27.898Z,5.25
2023-02-26T06:14:30.065Z,9.00
2023-02-26T06:15:32.658Z,8.00
2023-02-26T06:16:35.868Z,6.00
2023-02-26T06:17:40.690Z,7.25
2023-02-26T06:18:42.554Z,7.50
2023-02-26T06:19:45.789Z,5.50
2023-02-26T06:20:47.405Z,5.25
2023-02-26T06:21:49.975Z,9.00
2023-02-26T06:22:51.584Z,7.00
2023-02-26T06:23:55.539Z,7.00
2023-02-26T06:24:57.144Z,7.00
2023-02-26T06:26:00.415Z,7.75
2023-02-26T06:27:02.050Z,7.00
2023-02-26T06:28:04.633Z,7.75
2023-02-26T06:29:08.174Z,8.25
2023-02-26T06:30:10.928Z,5.50
2023-02-26T06:31:13.525Z,6.75
2023-02-26T06:32:15.309Z,7.00
2023-02-26T06:33:17.930Z,5.00
2023-02-26T06:34:19.560Z,6.50
2023-02-26T06:35:22.365Z,7.25
2023-02-26T06:36:24.211Z,7.00
2023-02-26T06:37:27.011Z,8.50
2023-02-26T06:38:28.708Z,7.75
2023-02-26T06:39:32.646Z,7.25
2023-02-26T06:40:34.261Z,6.50
2023-02-26T06:41:36.831Z,7.00
2023-02-26T06:42:38.478Z,8.75
2023-02-26T06:43:41.172Z,5.75
2023-02-26T06:44:42.834Z,9.00
2023-02-26T06:45:46.239Z,6.00
2023-02-26T06:46:47.885Z,8.00
2023-02-26T06:47:50.496Z,7.00
2023-02-26T06:48:52.100Z,8.25
2023-02-26T06:49:54.709Z,10.25
2023-02-26T06:50:56.320Z,6.00
2023-02-26T06:51:58.929Z,8.25
2023-02-26T06:53:00.624Z,6.25
2023-02-26T06:54:03.225Z,8.25
2023-02-26T06:55:07.406Z,7.00
2023-02-26T06:56:10.010Z,9.00
2023-02-26T06:57:11.620Z,7.00
2023-02-26T06:58:14.315Z,8.25
2023-02-26T06:59:15.940Z,7.00
2023-02-26T07:00:19.008Z,9.00
2023-02-26T07:01:20.720Z,10.25
2023-02-26T07:02:23.683Z,9.00
2023-02-26T07:03:25.323Z,11.00
2023-02-26T07:04:27.982Z,9.00
2023-02-26T07:05:29.614Z,9.00
2023-02-26T07:06:32.441Z,7.25
2023-02-26T07:07:34.082Z,6.75
2023-02-26T07:08:36.654Z,5.25
2023-02-26T07:09:38.338Z,8.75
2023-02-26T07:10:42.520Z,7.00
2023-02-26T07:11:44.165Z,7.75
2023-02-26T07:12:46.774Z,7.00
2023-02-26T07:13:48.413Z,5.50
2023-02-26T07:14:50.982Z,8.00
2023-02-26T07:15:52.585Z,7.00
2023-02-26T07:16:55.206Z,6.50
2023-02-26T07:17:56.874Z,7.50
2023-02-26T07:18:59.465Z,5.00
2023-02-26T07:20:06.134Z,5.00
2023-02-26T07:21:08.745Z,5.00
2023-02-26T07:22:10.370Z,5.00
2023-02-26T07:23:12.991Z,7.50
2023-02-26T07:24:14.614Z,9.00
2023-02-26T07:25:17.189Z,7.00
2023-02-26T07:26:20.167Z,5.00
2023-02-26T07:27:22.768Z,5.00
2023-02-26T07:28:24.628Z,7.00
2023-02-26T07:29:27.210Z,5.00
2023-02-26T07:30:31.021Z,5.00
2023-02-26T07:31:32.982Z,5.00
2023-02-26T07:32:35.700Z,7.00
2023-02-26T07:33:38.681Z,7.00
2023-02-26T07:34:41.285Z,5.00
2023-02-26T07:35:42.887Z,6.50
2023-02-26T07:36:45.464Z,6.50
2023-02-26T07:37:47.080Z,5.00
2023-02-26T07:38:49.681Z,5.00
2023-02-26T07:39:51.446Z,5.00
2023-02-26T07:40:55.734Z,6.00
2023-02-26T07:41:58.703Z,7.00
2023-02-26T07:43:01.296Z,5.50
2023-02-26T07:44:02.893Z,3.00
2023-02-26T07:45:06.179Z,5.00
2023-02-26T07:46:07.800Z,7.00
2023-02-26T07:47:10.743Z,3.50
2023-02-26T07:48:12.357Z,6.50
2023-02-26T07:49:14.933Z,5.00
2023-02-26T07:50:17.915Z,4.00
2023-02-26T07:51:19.555Z,4.50
2023-02-26T07:52:22.149Z,4.50
2023-02-26T07:53:23.799Z,5.00
2023-02-26T07:54:26.388Z,7.00
2023-02-26T07:55:29.830Z,3.50
2023-02-26T07:56:31.754Z,5.00
2023-02-26T07:57:35.719Z,4.50
2023-02-26T07:58:37.315Z,3.00
2023-02-26T07:59:39.913Z,5.00
2023-02-26T08:00:41.546Z,5.50
2023-02-26T08:01:44.172Z,5.50
2023-02-26T08:02:45.840Z,8.75
2023-02-26T08:03:48.538Z,7.00
2023-02-26T08:04:50.257Z,3.50
2023-02-26T08:05:52.829Z,7.00
2023-02-26T08:06:54.709Z,13.75
2023-02-26T08:07:57.289Z,14.00
2023-02-26T08:08:58.900Z,5.00
2023-02-26T08:10:01.778Z,5.00
2023-02-26T08:11:03.592Z,5.50
2023-02-26T08:12:06.283Z,6.50
2023-02-26T08:13:09.349Z,5.00
2023-02-26T08:14:12.303Z,5.00
2023-02-26T08:15:14.439Z,6.50
2023-02-26T08:16:17.154Z,5.00
2023-02-26T08:17:18.822Z,4.50
2023-02-26T08:18:21.473Z,5.50
2023-02-26T08:19:23.133Z,5.50
2023-02-26T08:20:25.789Z,4.50
2023-02-26T08:21:27.396Z,5.00
2023-02-26T08:22:29.986Z,4.00
2023-02-26T08:23:32.493Z,5.00
2023-02-26T08:24:35.137Z,5.00
2023-02-26T08:25:36.781Z,5.50
2023-02-26T08:26:39.435Z,5.00
2023-02-26T08:27:41.078Z,7.00
2023-02-26T08:28:46.309Z,5.00
2023-02-26T08:29:50.287Z,5.00
2023-02-26T08:30:52.849Z,3.00
2023-02-26T08:31:55.606Z,5.00
2023-02-26T08:32:57.300Z,7.00
2023-02-26T08:33:59.881Z,7.00
2023-02-26T08:35:02.469Z,8.50
2023-02-26T08:36:05.649Z,6.50
2023-02-26T08:37:09.255Z,9.00
2023-02-26T08:38:10.928Z,8.00
2023-02-26T08:39:13.502Z,5.00
2023-02-26T08:40:15.408Z,6.00
2023-02-26T08:41:18.423Z,5.00
2023-02-26T08:42:20.480Z,6.00
2023-02-26T08:43:23.093Z,6.00
2023-02-26T08:44:27.011Z,5.00
2023-02-26T08:45:28.645Z,7.00
2023-02-26T08:46:31.287Z,7.00
2023-02-26T08:47:33.082Z,6.00
2023-02-26T08:48:36.713Z,5.00
2023-02-26T08:49:38.301Z,5.00
2023-02-26T08:50:41.102Z,3.00
2023-02-26T08:51:43.679Z,5.00
2023-02-26T08:52:45.373Z,4.50
2023-02-26T08:53:49.899Z,5.00
2023-02-26T08:54:51.730Z,4.50
2023-02-26T08:55:54.357Z,4.00
2023-02-26T08:56:57.704Z,5.00
2023-02-26T08:58:00.294Z,4.50
2023-02-26T08:59:01.930Z,5.00
2023-02-26T09:00:10.344Z,3.00
2023-02-26T09:01:11.979Z,4.50
2023-02-26T09:02:15.452Z,3.00
2023-02-26T09:03:17.234Z,3.00
2023-02-26T09:04:19.978Z,6.50
2023-02-26T09:05:21.653Z,3.67
2023-02-26T09:06:24.502Z,3.00
2023-02-26T09:07:27.319Z,3.00
2023-02-26T09:08:29.173Z,4.50
2023-02-26T09:09:34.456Z,3.00
2023-02-26T09:10:36.095Z,5.00
2023-02-26T09:11:38.911Z,5.00
2023-02-26T09:12:40.550Z,3.00
2023-02-26T09:13:43.472Z,5.00
2023-02-26T09:14:45.357Z,3.00
2023-02-26T09:15:50.272Z,3.00
2023-02-26T09:16:51.892Z,3.00
2023-02-26T09:17:55.003Z,6.00
2023-02-26T09:18:56.652Z,5.00
2023-02-26T09:19:59.421Z,5.00
2023-02-26T09:21:01.120Z,8.50
2023-02-26T09:22:05.890Z,5.00
2023-02-26T09:23:07.890Z,4.00
2023-02-26T09:24:10.458Z,3.00
2023-02-26T09:25:12.139Z,5.00
2023-02-26T09:26:14.968Z,5.00
2023-02-26T09:27:16.626Z,5.00
2023-02-26T09:28:19.395Z,3.00
2023-02-26T09:29:21.061Z,4.50
2023-02-26T09:30:24.452Z,4.00
2023-02-26T09:31:28.153Z,3.00
2023-02-26T09:32:31.092Z,3.00
2023-02-26T09:33:32.889Z,5.00
2023-02-26T09:34:35.480Z,4.00
2023-02-26T09:35:38.074Z,3.00
2023-02-26T09:36:40.653Z,3.00
2023-02-26T09:37:42.355Z,3.00
2023-02-26T09:38:45.900Z,3.00
2023-02-26T09:39:47.596Z,3.00
2023-02-26T09:40:51.702Z,3.00
2023-02-26T09:41:55.242Z,4.00
2023-02-26T09:43:07.420Z,5.00
2023-02-26T09:44:17.102Z,5.00
2023-02-26T09:45:22.868Z,6.50
2023-02-26T09:46:32.215Z,3.50
2023-02-26T09:47:40.873Z,3.00
2023-02-26T09:48:42.559Z,3.00
2023-02-26T09:49:50.206Z,3.00
2023-02-26T09:50:52.897Z,3.50
2023-02-26T09:51:57.710Z,5.00
2023-02-26T09:53:01.944Z,3.00
2023-02-26T09:54:07.636Z,7.00
2023-02-26T09:55:12.150Z,4.50
2023-02-26T09:56:15.863Z,5.00
2023-02-26T09:57:25.447Z,4.00
2023-02-26T09:58:30.018Z,5.00
2023-02-26T09:59:33.165Z,5.00
2023-02-26T10:00:38.290Z,3.50
2023-02-26T10:01:46.260Z,3.00
2023-02-26T10:02:52.760Z,3.50
2023-02-26T10:03:57.960Z,5.00
2023-02-26T10:05:06.362Z,4.00
2023-02-26T10:06:21.491Z,3.00
2023-02-26T10:07:30.153Z,3.50
2023-02-26T10:08:34.151Z,3.00
2023-02-26T10:09:45.827Z,3.00
2023-02-26T10:10:51.298Z,3.00
2023-02-26T10:11:56.285Z,3.00
2023-02-26T10:13:00.359Z,3.00
2023-02-26T10:14:02.968Z,2.00
2023-02-26T10:15:09.560Z,4.50
2023-02-26T10:16:13.913Z,5.00
2023-02-26T10:17:21.802Z,3.00
2023-02-26T10:18:25.317Z,3.00
2023-02-26T10:19:28.010Z,5.00
2023-02-26T10:20:33.233Z,3.00
2023-02-26T10:21:37.973Z,4.50
2023-02-26T10:22:41.954Z,3.00
2023-02-26T10:23:48.709Z,3.00
2023-02-26T10:24:52.558Z,4.50
2023-02-26T10:25:58.270Z,3.00
2023-02-26T10:27:03.171Z,3.00
2023-02-26T10:28:12.964Z,5.00
2023-02-26T10:29:18.031Z,3.00
2023-02-26T10:30:24.834Z,3.00
2023-02-26T10:31:30.572Z,6.00
2023-02-26T10:32:36.984Z,5.00
2023-02-26T10:33:40.675Z,3.50
2023-02-26T10:34:47.191Z,4.50
2023-02-26T10:35:52.794Z,3.00
2023-02-26T10:36:59.909Z,3.00
2023-02-26T10:38:02.972Z,5.00
2023-02-26T10:39:19.413Z,3.00
2023-02-26T10:40:25.542Z,4.00
2023-02-26T10:41:28.562Z,3.00
2023-02-26T10:42:32.909Z,5.00
2023-02-26T10:43:35.846Z,3.00
2023-02-26T10:44:41.702Z,4.75
2023-02-26T10:45:48.395Z,5.00
2023-02-26T10:46:55.140Z,5.00
2023-02-26T10:48:04.475Z,3.00
2023-02-26T10:49:22.220Z,3.00
2023-02-26T10:50:24.881Z,4.50
2023-02-26T10:51:29.196Z,3.00
2023-02-26T10:52:33.831Z,3.00
2023-02-26T10:53:35.472Z,1.00
2023-02-26T10:54:39.319Z,1.50
2023-02-26T10:55:42.059Z,3.00
2023-02-26T10:56:44.647Z,2.50
2023-02-26T10:57:48.496Z,3.00
2023-02-26T10:58:51.091Z,3.00
2023-02-26T10:59:52.736Z,3.00
2023-02-26T11:00:55.979Z,3.00
2023-02-26T11:01:58.581Z,3.00
2023-02-26T11:03:01.538Z,3.00
2023-02-26T11:04:05.494Z,4.50
2023-02-26T11:05:13.230Z,3.00
2023-02-26T11:06:20.934Z,2.00
2023-02-26T11:07:22.536Z,3.00
2023-02-26T11:08:26.898Z,3.00
2023-02-26T11:09:31.649Z,3.00
2023-02-26T11:10:41.919Z,3.00
2023-02-26T11:11:52.136Z,3.00
2023-02-26T11:12:54.760Z,2.50
2023-02-26T11:13:57.374Z,3.00
2023-02-26T11:15:00.871Z,3.00
2023-02-26T11:16:05.076Z,3.00
2023-02-26T11:17:10.472Z,1.00
2023-02-26T11:18:16.971Z,2.50
2023-02-26T11:19:21.531Z,2.50
2023-02-26T11:20:29.204Z,1.00
2023-02-26T11:21:37.098Z,3.00
2023-02-26T11:22:46.006Z,1.00
2023-02-26T11:23:48.593Z,1.00
2023-02-26T11:24:51.172Z,1.50
2023-02-26T11:25:54.494Z,1.50
2023-02-26T11:26:58.477Z,3.00
2023-02-26T11:28:01.993Z,2.00
2023-02-26T11:29:05.172Z,2.00
2023-02-26T11:30:11.006Z,3.00
2023-02-26T11:31:16.084Z,1.00
2023-02-26T11:32:19.042Z,2.50
2023-02-26T11:33:25.494Z,1.00
2023-02-26T11:34:27.099Z,1.00
2023-02-26T11:35:29.687Z,1.00
2023-02-26T11:36:33.979Z,1.00
2023-02-26T11:37:36.451Z,1.00
2023-02-26T11:38:39.129Z,2.50
2023-02-26T11:39:40.976Z,2.50
2023-02-26T11:40:43.745Z,1.00
2023-02-26T11:41:47.852Z,3.00
2023-02-26T11:42:50.815Z,1.00
2023-02-26T11:44:05.104Z,1.00
2023-02-26T11:45:07.928Z,3.00
2023-02-26T11:46:10.702Z,3.00
2023-02-26T11:47:13.835Z,3.00
2023-02-26T11:48:17.372Z,3.00
2023-02-26T11:49:22.744Z,1.00
2023-02-26T11:50:25.923Z,1.00
2023-02-26T11:51:28.804Z,2.50
2023-02-26T11:52:34.716Z,3.00
2023-02-26T11:53:38.498Z,2.50
2023-02-26T11:54:40.105Z,3.00
2023-02-26T11:55:45.605Z,3.00
2023-02-26T11:56:48.347Z,1.00
2023-02-26T11:57:53.949Z,1.00
2023-02-26T11:58:56.666Z,3.00
2023-02-26T11:59:59.541Z,4.00
2023-02-26T12:01:02.557Z,1.00
2023-02-26T12:02:11.897Z,3.00
2023-02-26T12:03:17.456Z,3.00
2023-02-26T12:04:23.005Z,1.00
2023-02-26T12:05:25.731Z,1.00
2023-02-26T12:06:27.508Z,3.00
2023-02-26T12:07:30.085Z,2.00
2023-02-26T12:08:38.251Z,3.50
2023-02-26T12:09:40.941Z,3.00
2023-02-26T12:10:45.677Z,3.00
2023-02-26T12:11:55.260Z,2.00
2023-02-26T12:13:03.867Z,1.00
2023-02-26T12:14:13.293Z,3.00
2023-02-26T12:15:21.659Z,3.00
2023-02-26T12:16:26.575Z,1.00
2023-02-26T12:17:34.997Z,4.00
2023-02-26T12:18:53.435Z,3.00
2023-02-26T12:19:59.050Z,1.00
2023-02-26T12:21:12.353Z,4.00
2023-02-26T12:22:27.901Z,1.00
2023-02-26T12:23:54.721Z,1.00
2023-02-26T12:25:21.677Z,3.00
2023-02-26T12:26:26.961Z,3.00
2023-02-26T12:27:34.854Z,3.00
2023-02-26T12:28:43.305Z,3.50
2023-02-26T12:29:54.239Z,3.00
2023-02-26T12:31:16.588Z,5.00
2023-02-26T12:32:34.530Z,3.00
2023-02-26T12:33:41.182Z,1.00
2023-02-26T12:35:13.352Z,2.50
2023-02-26T12:36:27.041Z,1.50
2023-02-26T12:37:36.935Z,1.50
2023-02-26T12:38:42.459Z,1.00
2023-02-26T12:39:52.024Z,1.00
2023-02-26T12:41:17.956Z,3.00
2023-02-26T12:42:25.278Z,2.00
2023-02-26T12:43:35.336Z,2.00
2023-02-26T12:44:55.797Z,2.00
2023-02-26T12:46:08.848Z,3.00
2023-02-26T12:47:22.654Z,3.00
2023-02-26T12:48:45.631Z,1.00
2023-02-26T12:49:55.825Z,1.00
2023-02-26T12:51:02.528Z,1.00
2023-02-26T12:52:17.167Z,3.00
2023-02-26T12:53:36.495Z,1.00
2023-02-26T12:54:45.765Z,3.00
2023-02-26T12:55:57.450Z,1.00
2023-02-26T12:57:20.832Z,1.00
2023-02-26T12:58:31.772Z,1.00
2023-02-26T12:59:51.379Z,3.00
2023-02-26T13:01:08.943Z,2.50
2023-02-26T13:02:36.665Z,3.00
2023-02-26T13:04:03.600Z,3.00
2023-02-26T13:05:17.094Z,2.50
2023-02-26T13:06:48.485Z,3.00
2023-02-26T13:07:55.803Z,3.00
2023-02-26T13:09:02.510Z,3.00
2023-02-26T13:10:06.917Z,1.00
2023-02-26T13:11:17.203Z,3.00
2023-02-26T13:12:25.736Z,1.00
2023-02-26T13:13:46.540Z,1.00
2023-02-26T13:14:52.774Z,3.00
2023-02-26T13:16:02.667Z,3.00
2023-02-26T13:17:08.431Z,1.00
2023-02-26T13:18:12.181Z,2.00
2023-02-26T13:19:23.523Z,2.00
2023-02-26T13:20:27.225Z,1.00
2023-02-26T13:21:30.755Z,1.00
2023-02-26T13:22:35.076Z,3.00
2023-02-26T13:23:40.242Z,2.50
2023-02-26T13:24:44.122Z,3.00
2023-02-26T13:25:51.670Z,4.00
2023-02-26T13:26:54.497Z,3.00
2023-02-26T13:27:57.224Z,2.00
2023-02-26T13:29:01.234Z,3.00
2023-02-26T13:30:13.781Z,2.00
2023-02-26T13:31:18.255Z,3.00
2023-02-26T13:32:21.476Z,3.00
2023-02-26T13:33:26.189Z,2.00
2023-02-26T13:34:46.930Z,3.00
2023-02-26T13:35:48.664Z,3.00
2023-02-26T13:36:51.678Z,1.00
2023-02-26T13:37:55.834Z,1.00
2023-02-26T13:39:42.275Z,4.00
2023-02-26T13:40:47.782Z,2.00
2023-02-26T13:41:54.154Z,3.00
2023-02-26T13:43:01.550Z,3.00
2023-02-26T13:44:16.566Z,2.50
2023-02-26T13:45:33.833Z,3.00
2023-02-26T13:46:48.336Z,2.00
2023-02-26T13:47:57.379Z,1.00
2023-02-26T13:49:20.223Z,3.00
2023-02-26T13:50:28.144Z,2.50
2023-02-26T13:51:34.610Z,3.00
2023-02-26T13:52:36.548Z,2.50
2023-02-26T13:53:59.772Z,3.00
2023-02-26T13:55:04.903Z,2.50
2023-02-26T13:56:07.380Z,2.50
2023-02-26T13:57:16.951Z,2.00
2023-02-26T13:58:36.326Z,2.50
2023-02-26T13:59:47.826Z,1.00
2023-02-26T14:00:58.372Z,1.50
2023-02-26T14:02:02.857Z,1.50
2023-02-26T14:03:12.233Z,1.00
2023-02-26T14:04:24.145Z,3.00
2023-02-26T14:05:38.160Z,1.00
2023-02-26T14:06:42.499Z,1.50
2023-02-26T14:07:48.421Z,3.00
2023-02-26T14:08:52.660Z,1.50
2023-02-26T14:09:57.322Z,3.00
2023-02-26T14:11:04.259Z,3.00
2023-02-26T14:12:35.867Z,3.00
2023-02-26T14:13:39.099Z,3.25
2023-02-26T14:14:42.035Z,3.00
2023-02-26T14:15:49.680Z,4.00
2023-02-26T14:16:55.576Z,3.25
2023-02-26T14:18:06.923Z,3.00
2023-02-26T14:19:21.870Z,3.25
2023-02-26T14:20:25.194Z,3.00
2023-02-26T14:21:38.895Z,2.00
2023-02-26T14:22:43.256Z,1.00